createdAt,value
2022-09-20T00:04:49.081Z,9.90
2022-09-20T00:07:34.987Z,10.03
2022-09-20T00:10:18.258Z,10.17
2022-09-20T00:13:21.297Z,10.40
2022-09-20T00:16:03.794Z,10.26
2022-09-20T00:18:55.869Z,10.44
2022-09-20T00:21:40.267Z,10.59
2022-09-20T00:24:39.125Z,10.67
2022-09-20T00:27:48.394Z,10.42
2022-09-20T00:30:35.869Z,10.69
2022-09-20T00:33:27.653Z,10.71
2022-09-20T00:39:19.480Z,11.15
2022-09-20T00:42:16.786Z,11.30
2022-09-20T00:44:56.970Z,11.27
2022-09-20T00:47:50.508Z,11.41
2022-09-20T00:50:46.127Z,11.50
2022-09-20T00:53:36.716Z,11.40
2022-09-20T00:56:38.526Z,11.50
2022-09-20T00:59:23.062Z,11.49
2022-09-20T01:02:07.807Z,10.76
2022-09-20T01:04:54.747Z,10.52
2022-09-20T01:08:06.406Z,10.62
2022-09-20T01:10:59.306Z,10.90
2022-09-20T01:13:48.330Z,11.00
2022-09-20T01:16:29.342Z,11.35
2022-09-20T01:19:10.809Z,11.09
2022-09-20T01:21:49.409Z,10.93
2022-09-20T01:24:56.063Z,10.96
2022-09-20T01:27:51.485Z,11.44
2022-09-20T01:30:47.842Z,11.53
2022-09-20T01:33:43.785Z,11.80
2022-09-20T01:36:44.218Z,11.88
2022-09-20T01:39:28.577Z,11.87
2022-09-20T01:42:28.905Z,11.52
2022-09-20T01:45:28.722Z,11.62
2022-09-20T01:48:35.197Z,11.86
2022-09-20T01:51:55.114Z,11.80
2022-09-20T01:58:33.825Z,12.08
2022-09-20T02:01:42.670Z,11.93
2022-09-20T02:04:49.089Z,12.01
2022-09-20T02:07:55.817Z,12.05
2022-09-20T02:11:17.777Z,11.83
2022-09-20T02:14:30.860Z,11.91
2022-09-20T02:17:22.585Z,12.25
2022-09-20T02:20:46.196Z,12.30
2022-09-20T02:23:50.253Z,12.22
2022-09-20T02:26:42.689Z,12.05
2022-09-20T02:29:29.338Z,12.26
2022-09-20T02:32:34.083Z,12.25
2022-09-20T02:35:39.260Z,12.33
2022-09-20T02:38:56.117Z,12.28
2022-09-20T02:45:14.099Z,12.15
2022-09-20T02:48:05.446Z,12.40
2022-09-20T02:51:08.005Z,12.48
2022-09-20T02:53:59.823Z,12.12
2022-09-20T02:57:06.143Z,11.55
2022-09-20T03:00:00.001Z,11.38
2022-09-20T03:02:41.297Z,11.78
2022-09-20T03:05:28.395Z,12.00
2022-09-20T03:08:13.452Z,11.90
2022-09-20T03:11:08.143Z,10.98
2022-09-20T03:14:28.843Z,11.43
2022-09-20T03:17:40.529Z,11.08
2022-09-20T03:20:32.875Z,10.53
2022-09-20T03:23:26.860Z,10.71
2022-09-20T03:26:11.995Z,11.08
2022-09-20T03:29:07.701Z,10.83
2022-09-20T03:32:03.301Z,11.12
2022-09-20T03:34:51.647Z,11.30
2022-09-20T03:38:15.203Z,11.70
2022-09-20T03:41:41.258Z,12.22
2022-09-20T03:44:40.308Z,12.44
2022-09-20T03:47:33.873Z,12.40
2022-09-20T03:50:44.836Z,12.66
2022-09-20T03:53:58.507Z,12.44
2022-09-20T03:57:08.161Z,12.38
2022-09-20T04:00:37.697Z,11.97
2022-09-20T04:03:20.131Z,11.93
2022-09-20T04:06:45.453Z,12.38
2022-09-20T04:09:51.005Z,12.54
2022-09-20T04:12:56.381Z,12.29
2022-09-20T04:15:50.277Z,12.09
2022-09-20T04:18:39.099Z,12.20
2022-09-20T04:21:25.892Z,12.28
2022-09-20T04:24:15.439Z,12.22
2022-09-20T04:33:19.087Z,12.31
2022-09-20T04:36:23.009Z,11.93
2022-09-20T04:39:08.416Z,12.11
2022-09-20T04:42:28.152Z,12.41
2022-09-20T04:45:46.896Z,12.82
2022-09-20T04:49:01.599Z,12.89
2022-09-20T04:52:33.315Z,12.98
2022-09-20T04:55:56.410Z,13.18
2022-09-20T04:58:51.091Z,13.36
2022-09-20T05:02:12.623Z,13.31
2022-09-20T05:05:37.073Z,12.87
2022-09-20T05:09:00.858Z,12.73
2022-09-20T05:15:34.380Z,13.01
2022-09-20T05:18:49.708Z,13.12
2022-09-20T05:25:39.000Z,12.78
2022-09-20T05:28:38.032Z,12.94
2022-09-20T05:31:33.182Z,12.98
2022-09-20T05:34:32.966Z,12.77
2022-09-20T05:37:25.596Z,12.94
2022-09-20T05:40:07.928Z,12.94
2022-09-20T05:43:04.547Z,12.63
2022-09-20T05:46:09.043Z,12.24
2022-09-20T05:49:09.953Z,12.06
2022-09-20T05:52:03.628Z,12.09
2022-09-20T05:55:11.401Z,12.23
2022-09-20T05:58:20.129Z,12.52
2022-09-20T06:01:16.426Z,12.92
2022-09-20T06:04:05.457Z,13.01
2022-09-20T06:07:08.928Z,12.63
2022-09-20T06:10:39.211Z,12.73
2022-09-20T06:13:40.788Z,12.89
2022-09-20T06:16:38.068Z,13.08
2022-09-20T06:19:34.672Z,12.89
2022-09-20T06:22:53.029Z,12.90
2022-09-20T06:25:34.237Z,12.98
2022-09-20T06:28:16.655Z,13.05
2022-09-20T06:30:55.480Z,12.76
2022-09-20T06:33:44.626Z,12.55
2022-09-20T06:36:39.874Z,12.70
2022-09-20T06:39:46.610Z,12.84
2022-09-20T06:42:38.121Z,12.73
2022-09-20T06:45:29.258Z,12.76
2022-09-20T06:48:06.890Z,12.31
2022-09-20T06:50:59.959Z,12.54
2022-09-20T06:53:47.124Z,12.42
2022-09-20T06:56:28.855Z,12.32
2022-09-20T06:59:11.607Z,12.44
2022-09-20T07:01:58.313Z,12.55
2022-09-20T07:04:41.282Z,12.66
2022-09-20T07:07:39.260Z,12.57
2022-09-20T07:10:27.377Z,12.60
2022-09-20T07:13:07.797Z,12.58
2022-09-20T07:16:02.775Z,12.49
2022-09-20T07:18:50.966Z,12.14
2022-09-20T07:21:30.735Z,12.21
2022-09-20T07:24:20.412Z,12.23
2022-09-20T07:27:18.020Z,12.06
2022-09-20T07:30:21.777Z,12.00
2022-09-20T07:33:04.833Z,11.76
2022-09-20T07:36:09.676Z,11.93
2022-09-20T07:39:24.077Z,11.74
2022-09-20T07:43:11.450Z,11.69
2022-09-20T07:45:57.713Z,11.49
2022-09-20T07:48:52.273Z,11.45
2022-09-20T07:51:43.601Z,11.40
2022-09-20T07:54:26.361Z,11.43
2022-09-20T07:57:03.999Z,11.35
2022-09-20T07:59:48.596Z,11.37
2022-09-20T08:02:26.929Z,11.36
2022-09-20T08:05:10.955Z,11.25
2022-09-20T08:07:52.172Z,11.11
2022-09-20T08:10:47.615Z,11.00
2022-09-20T08:16:49.984Z,10.87
2022-09-20T08:19:37.575Z,10.76
2022-09-20T08:22:15.408Z,10.82
2022-09-20T08:25:15.713Z,10.85
2022-09-20T08:27:59.299Z,10.83
2022-09-20T08:30:56.714Z,10.70
2022-09-20T08:33:41.146Z,10.59
2022-09-20T08:36:23.234Z,10.65
2022-09-20T08:42:36.677Z,10.50
2022-09-20T08:45:34.919Z,10.48
2022-09-20T08:48:18.743Z,10.50
2022-09-20T08:51:42.095Z,10.24
2022-09-20T08:54:40.635Z,10.34
2022-09-20T08:57:29.204Z,10.03
2022-09-20T09:00:07.611Z,10.29
2022-09-20T09:02:44.462Z,10.35
2022-09-20T09:08:43.938Z,10.06
2022-09-20T09:11:30.270Z,10.04
2022-09-20T09:14:37.207Z,9.83
2022-09-20T09:17:27.357Z,9.55
2022-09-20T09:20:07.911Z,9.66
2022-09-20T09:22:59.687Z,9.58
2022-09-20T09:25:46.761Z,9.73
2022-09-20T09:28:35.455Z,9.68
2022-09-20T09:31:47.023Z,9.65
2022-09-20T09:34:33.214Z,9.66
2022-09-20T09:37:44.108Z,9.09
2022-09-20T09:40:29.224Z,9.49
2022-09-20T09:43:40.737Z,9.46
2022-09-20T09:46:28.213Z,9.44
2022-09-20T09:49:25.536Z,9.46
2022-09-20T09:52:36.152Z,8.79
2022-09-20T09:55:20.228Z,9.07
2022-09-20T10:02:07.683Z,8.91
2022-09-20T10:05:04.943Z,8.70
2022-09-20T10:07:53.754Z,8.45
2022-09-20T10:10:51.833Z,8.52
2022-09-20T10:13:57.942Z,8.50
2022-09-20T10:16:47.064Z,8.66
2022-09-20T10:19:43.734Z,8.79
2022-09-20T10:22:40.016Z,8.75
2022-09-20T10:25:26.718Z,8.91
2022-09-20T10:28:28.776Z,8.99
2022-09-20T10:31:28.152Z,8.75
2022-09-20T10:34:25.729Z,8.67
2022-09-20T10:37:05.628Z,8.50
2022-09-20T10:39:58.094Z,8.67
2022-09-20T10:43:05.676Z,8.25
2022-09-20T10:46:30.771Z,8.66
2022-09-20T10:49:30.821Z,8.21
2022-09-20T10:52:33.931Z,8.52
2022-09-20T10:55:38.981Z,8.54
2022-09-20T10:58:50.571Z,8.57
2022-09-20T11:01:38.551Z,8.53
2022-09-20T11:05:02.580Z,8.56
2022-09-20T11:08:04.918Z,8.58
2022-09-20T11:10:47.151Z,8.60
2022-09-20T11:13:39.975Z,8.57
2022-09-20T11:16:41.960Z,8.48
2022-09-20T11:19:53.330Z,7.93
2022-09-20T11:28:56.531Z,8.46
2022-09-20T11:31:50.292Z,8.51
2022-09-20T11:34:36.405Z,8.53
2022-09-20T11:37:14.929Z,8.54
2022-09-20T11:40:01.707Z,8.52
2022-09-20T11:42:57.145Z,8.42
2022-09-20T11:45:40.958Z,8.46
2022-09-20T11:48:29.653Z,8.47
2022-09-20T11:51:46.939Z,8.47
2022-09-20T11:54:42.655Z,8.40
2022-09-20T11:57:25.837Z,8.47
2022-09-20T12:00:16.847Z,8.46
2022-09-20T12:03:03.163Z,8.56
2022-09-20T12:08:37.592Z,8.67
2022-09-20T12:11:33.129Z,8.70
2022-09-20T12:14:48.825Z,8.66
2022-09-20T12:18:02.656Z,8.63
2022-09-20T12:21:19.157Z,8.66
2022-09-20T12:28:11.576Z,8.63
2022-09-20T12:30:53.003Z,8.59
2022-09-20T12:37:33.909Z,8.56
2022-09-20T12:40:24.025Z,8.59
2022-09-20T12:46:12.087Z,8.13
2022-09-20T12:51:56.585Z,8.48
2022-09-20T12:55:10.977Z,8.47
2022-09-20T12:58:09.965Z,8.55
2022-09-20T13:00:50.527Z,8.36
2022-09-20T13:03:41.263Z,8.42
2022-09-20T13:06:43.964Z,8.33
2022-09-20T13:09:26.580Z,8.20
2022-09-20T13:12:10.302Z,8.19
2022-09-20T13:15:14.080Z,8.18
2022-09-20T13:17:58.151Z,8.21
2022-09-20T13:20:41.503Z,8.23
2022-09-20T13:23:37.242Z,8.19
2022-09-20T13:26:29.422Z,8.00
2022-09-20T13:29:21.270Z,8.01
2022-09-20T13:32:23.530Z,8.01
2022-09-20T13:38:17.199Z,7.99
2022-09-20T13:40:57.473Z,8.03
2022-09-20T13:43:56.638Z,7.94
2022-09-20T13:46:37.316Z,7.86
2022-09-20T13:52:36.943Z,7.94
2022-09-20T13:55:52.442Z,7.94
2022-09-20T13:58:49.743Z,8.02
2022-09-20T14:01:43.496Z,8.02
2022-09-20T14:04:51.177Z,8.06
2022-09-20T14:07:44.283Z,8.11
2022-09-20T14:10:36.693Z,8.16
2022-09-20T14:13:14.547Z,7.97
2022-09-20T14:16:24.321Z,8.25
2022-09-20T14:19:23.708Z,8.37
2022-09-20T14:22:23.924Z,8.36
2022-09-20T14:25:24.690Z,8.27
2022-09-20T14:28:39.560Z,8.26
2022-09-20T14:31:53.160Z,7.93
2022-09-20T14:34:40.531Z,8.31
2022-09-20T14:37:37.944Z,7.94
2022-09-20T14:40:37.225Z,8.25
2022-09-20T14:43:36.332Z,8.22
2022-09-20T14:46:31.144Z,8.19
2022-09-20T14:49:37.725Z,8.30
2022-09-20T14:52:57.484Z,8.32
2022-09-20T14:55:54.475Z,8.29
2022-09-20T14:58:48.182Z,8.31
2022-09-20T15:01:57.714Z,8.37
2022-09-20T15:04:40.342Z,8.27
2022-09-20T15:07:20.935Z,8.38
2022-09-20T15:09:57.735Z,8.40
2022-09-20T15:12:44.129Z,8.41
2022-09-20T15:15:41.664Z,8.54
2022-09-20T15:18:38.499Z,8.50
2022-09-20T15:21:21.746Z,8.43
2022-09-20T15:24:01.685Z,8.43
2022-09-20T15:26:44.186Z,8.42
2022-09-20T15:32:43.924Z,8.39
2022-09-20T15:35:26.495Z,8.39
2022-09-20T15:38:15.030Z,8.05
2022-09-20T15:40:59.695Z,8.30
2022-09-20T15:43:40.510Z,8.31
2022-09-20T15:46:33.769Z,8.32
2022-09-20T15:49:16.679Z,8.35
2022-09-20T15:52:01.252Z,8.35
2022-09-20T15:57:50.013Z,8.35
2022-09-20T16:00:29.872Z,8.32
2022-09-20T16:03:24.661Z,8.38
2022-09-20T16:06:06.333Z,8.38
2022-09-20T16:08:43.962Z,8.41
2022-09-20T16:11:24.277Z,8.37
2022-09-20T16:14:09.904Z,8.41
2022-09-20T16:17:04.263Z,8.43
2022-09-20T16:19:52.351Z,8.40
2022-09-20T16:22:26.015Z,8.38
2022-09-20T16:25:15.489Z,8.38
2022-09-20T16:27:52.533Z,8.09
2022-09-20T16:30:31.710Z,8.35
2022-09-20T16:33:13.105Z,8.38
2022-09-20T16:35:54.997Z,8.38
2022-09-20T16:41:55.684Z,8.30
2022-09-20T16:44:35.146Z,8.29
2022-09-20T16:47:21.217Z,8.23
2022-09-20T16:50:03.603Z,8.19
2022-09-20T16:52:51.957Z,8.17
2022-09-20T16:55:32.943Z,8.19
2022-09-20T16:58:11.241Z,8.24
2022-09-20T17:01:12.647Z,8.18
2022-09-20T17:04:00.466Z,8.13
2022-09-20T17:06:59.007Z,8.11
2022-09-20T17:09:53.918Z,8.12
2022-09-20T17:12:42.755Z,8.08
2022-09-20T17:15:18.493Z,8.10
2022-09-20T17:18:05.261Z,8.07
2022-09-20T17:20:43.197Z,7.96
2022-09-20T17:23:26.082Z,7.93
2022-09-20T17:29:27.406Z,7.68
2022-09-20T17:32:14.419Z,7.81
2022-09-20T17:35:13.119Z,7.70
2022-09-20T17:38:03.071Z,7.65
2022-09-20T17:40:41.290Z,7.62
2022-09-20T17:43:48.824Z,7.64
2022-09-20T17:46:30.684Z,7.43
2022-09-20T17:49:10.240Z,7.60
2022-09-20T17:55:14.546Z,7.61
2022-09-20T17:58:08.501Z,7.51
2022-09-20T18:04:19.959Z,7.39
2022-09-20T18:07:04.083Z,7.28
2022-09-20T18:09:45.006Z,7.33
2022-09-20T18:15:31.009Z,7.25
2022-09-20T18:18:12.953Z,7.17
2022-09-20T18:20:54.988Z,7.10
2022-09-20T18:23:39.794Z,7.11
2022-09-20T18:26:34.074Z,7.18
2022-09-20T18:29:16.322Z,7.06
2022-09-20T18:32:00.581Z,7.29
2022-09-20T18:34:46.510Z,7.39
2022-09-20T18:37:32.901Z,7.40
2022-09-20T18:40:27.329Z,7.45
2022-09-20T18:43:05.188Z,7.50
2022-09-20T18:45:43.270Z,7.53
2022-09-20T18:48:34.588Z,7.60
2022-09-20T18:51:26.666Z,7.60
2022-09-20T18:54:05.653Z,7.61
2022-09-20T18:56:46.235Z,7.48
2022-09-20T18:59:54.008Z,7.63
2022-09-20T19:03:10.463Z,7.62
2022-09-20T19:05:50.172Z,7.68
2022-09-20T19:11:48.170Z,7.70
2022-09-20T19:14:42.641Z,7.33
2022-09-20T19:17:24.444Z,7.69
2022-09-20T19:23:19.238Z,7.70
2022-09-20T19:26:06.238Z,7.71
2022-09-20T19:28:42.973Z,7.74
2022-09-20T19:31:37.012Z,7.72
2022-09-20T19:34:24.149Z,7.74
2022-09-20T19:37:27.368Z,7.77
2022-09-20T19:40:14.905Z,7.77
2022-09-20T19:43:17.378Z,7.49
2022-09-20T19:46:12.217Z,7.27
2022-09-20T19:48:55.666Z,7.83
2022-09-20T19:52:02.019Z,7.77
2022-09-20T19:54:58.852Z,7.71
2022-09-20T19:57:45.053Z,7.66
2022-09-20T20:00:35.946Z,7.77
2022-09-20T20:03:14.480Z,7.84
2022-09-20T20:06:07.644Z,7.81
2022-09-20T20:08:47.470Z,7.77
2022-09-20T20:11:30.758Z,7.71
2022-09-20T20:14:18.239Z,7.71
2022-09-20T20:17:06.749Z,7.64
2022-09-20T20:20:03.986Z,7.67
2022-09-20T20:23:01.063Z,7.68
2022-09-20T20:26:07.567Z,7.72
2022-09-20T20:28:53.071Z,7.71
2022-09-20T20:31:31.646Z,7.70
2022-09-20T20:35:14.353Z,7.68
2022-09-20T20:38:03.569Z,7.67
2022-09-20T20:40:47.086Z,7.66
2022-09-20T20:43:22.856Z,7.64
2022-09-20T20:46:00.262Z,7.74
2022-09-20T20:48:57.978Z,7.74
2022-09-20T20:51:37.398Z,7.71
2022-09-20T20:57:43.688Z,7.26
2022-09-20T21:00:26.413Z,7.74
2022-09-20T21:06:02.988Z,8.02
2022-09-20T21:09:09.310Z,7.99
2022-09-20T21:12:09.115Z,8.01
2022-09-20T21:14:48.922Z,8.01
2022-09-20T21:17:38.146Z,8.07
2022-09-20T21:20:30.750Z,8.05
2022-09-20T21:23:15.435Z,8.16
2022-09-20T21:26:02.818Z,8.25
2022-09-20T21:28:46.298Z,8.08
2022-09-20T21:31:38.381Z,8.35
2022-09-20T21:34:21.718Z,8.29
2022-09-20T21:36:59.536Z,8.58
2022-09-20T21:39:36.941Z,8.67
2022-09-20T21:42:15.222Z,8.68
2022-09-20T21:45:14.959Z,8.74
2022-09-20T21:47:55.347Z,8.77
2022-09-20T21:50:41.005Z,8.66
2022-09-20T21:53:21.597Z,9.00
2022-09-20T21:56:18.634Z,9.07
2022-09-20T21:59:02.275Z,8.76
2022-09-20T22:01:45.348Z,9.14
2022-09-20T22:04:26.112Z,9.13
2022-09-20T22:07:05.548Z,9.17
2022-09-20T22:09:42.201Z,8.96
2022-09-20T22:12:32.466Z,9.28
2022-09-20T22:15:26.840Z,9.38
2022-09-20T22:18:11.950Z,9.49
2022-09-20T22:20:55.016Z,9.57
2022-09-20T22:23:37.444Z,9.53
2022-09-20T22:26:21.076Z,9.47
2022-09-20T22:28:59.080Z,9.65
2022-09-20T22:31:52.410Z,9.63
2022-09-20T22:34:38.245Z,9.79
2022-09-20T22:37:24.055Z,9.81
2022-09-20T22:42:58.968Z,9.98
2022-09-20T22:45:43.310Z,10.06
2022-09-20T22:48:24.127Z,10.15
2022-09-20T22:51:10.537Z,10.29
2022-09-20T22:53:52.576Z,10.43
2022-09-20T22:56:36.088Z,10.59
2022-09-20T22:59:26.536Z,10.58
2022-09-20T23:02:19.893Z,10.63
2022-09-20T23:05:03.081Z,10.00
2022-09-20T23:11:14.554Z,11.41
2022-09-20T23:13:59.156Z,11.51
2022-09-20T23:17:15.821Z,11.32
2022-09-20T23:20:02.695Z,11.46
2022-09-20T23:23:03.216Z,11.43
2022-09-20T23:25:53.969Z,11.45
2022-09-20T23:28:48.939Z,11.45
2022-09-20T23:34:33.013Z,11.51
2022-09-20T23:37:33.164Z,11.40
2022-09-20T23:40:15.653Z,11.56
2022-09-20T23:42:57.925Z,12.00
2022-09-20T23:45:48.565Z,12.06
2022-09-20T23:48:45.203Z,11.90
2022-09-20T23:51:37.005Z,11.98
2022-09-20T23:54:28.713Z,11.79
2022-09-20T23:57:52.254Z,11.85
